sensor_id;sensor_type;location;lat;lon;timestamp;temperature;humidity
1686;DHT22;840;47.980;7.830;2023-05-09T00:01:49;16.50;99.90
1686;DHT22;840;47.980;7.830;2023-05-09T00:04:16;16.60;99.90
1686;DHT22;840;47.980;7.830;2023-05-09T00:06:44;16.60;99.90
1686;DHT22;840;47.980;7.830;2023-05-09T00:09:11;16.60;99.90
1686;DHT22;840;47.980;7.830;2023-05-09T00:11:38;16.60;99.90
1686;DHT22;840;47.980;7.830;2023-05-09T00:14:06;16.70;99.90
1686;DHT22;840;47.980;7.830;2023-05-09T00:16:33;16.70;99.90
1686;DHT22;840;47.980;7.830;2023-05-09T00:19:01;16.70;99.90
1686;DHT22;840;47.980;7.830;2023-05-09T00:21:27;16.70;99.90
1686;DHT22;840;47.980;7.830;2023-05-09T00:23:55;16.70;99.90
1686;DHT22;840;47.980;7.830;2023-05-09T00:26:22;16.70;99.90
1686;DHT22;840;47.980;7.830;2023-05-09T00:28:48;16.70;99.90
1686;DHT22;840;47.980;7.830;2023-05-09T00:31:16;16.70;99.90
1686;DHT22;840;47.980;7.830;2023-05-09T00:33:43;16.70;99.90
1686;DHT22;840;47.980;7.830;2023-05-09T00:36:10;16.70;99.90
1686;DHT22;840;47.980;7.830;2023-05-09T00:38:37;16.60;99.90
1686;DHT22;840;47.980;7.830;2023-05-09T00:41:04;16.60;99.90
1686;DHT22;840;47.980;7.830;2023-05-09T00:43:30;16.60;99.90
1686;DHT22;840;47.980;7.830;2023-05-09T00:45:57;16.60;99.90
1686;DHT22;840;47.980;7.830;2023-05-09T00:48:25;16.60;99.90
1686;DHT22;840;47.980;7.830;2023-05-09T00:50:52;16.60;99.90
1686;DHT22;840;47.980;7.830;2023-05-09T00:53:19;16.50;99.90
1686;DHT22;840;47.980;7.830;2023-05-09T00:55:46;16.50;99.90
1686;DHT22;840;47.980;7.830;2023-05-09T00:58:13;16.40;99.90
1686;DHT22;840;47.980;7.830;2023-05-09T01:00:40;16.40;99.90
1686;DHT22;840;47.980;7.830;2023-05-09T01:03:07;16.40;99.90
1686;DHT22;840;47.980;7.830;2023-05-09T01:05:42;16.40;99.90
1686;DHT22;840;47.980;7.830;2023-05-09T01:08:16;16.40;99.90
1686;DHT22;840;47.980;7.830;2023-05-09T01:10:50;16.30;99.90
1686;DHT22;840;47.980;7.830;2023-05-09T01:13:24;16.30;99.90
1686;DHT22;840;47.980;7.830;2023-05-09T01:15:58;16.30;99.90
1686;DHT22;840;47.980;7.830;2023-05-09T01:18:34;16.30;99.90
1686;DHT22;840;47.980;7.830;2023-05-09T01:21:07;16.30;99.90
1686;DHT22;840;47.980;7.830;2023-05-09T01:23:52;16.30;99.90
1686;DHT22;840;47.980;7.830;2023-05-09T01:26:40;16.30;99.90
1686;DHT22;840;47.980;7.830;2023-05-09T01:29:34;16.20;99.90
1686;DHT22;840;47.980;7.830;2023-05-09T01:32:06;16.30;99.90
1686;DHT22;840;47.980;7.830;2023-05-09T01:34:34;16.20;99.90
1686;DHT22;840;47.980;7.830;2023-05-09T01:37:04;16.20;99.90
1686;DHT22;840;47.980;7.830;2023-05-09T01:39:33;16.20;99.90
1686;DHT22;840;47.980;7.830;2023-05-09T01:42:02;16.20;99.90
1686;DHT22;840;47.980;7.830;2023-05-09T01:44:36;16.20;99.90
1686;DHT22;840;47.980;7.830;2023-05-09T01:47:05;16.10;99.90
1686;DHT22;840;47.980;7.830;2023-05-09T01:49:35;16.10;99.90
1686;DHT22;840;47.980;7.830;2023-05-09T01:52:04;16.10;99.90
1686;DHT22;840;47.980;7.830;2023-05-09T01:54:33;16.10;99.90
1686;DHT22;840;47.980;7.830;2023-05-09T01:57:01;16.10;99.90
1686;DHT22;840;47.980;7.830;2023-05-09T01:59:30;16.10;99.90
1686;DHT22;840;47.980;7.830;2023-05-09T02:01:59;16.00;99.90
1686;DHT22;840;47.980;7.830;2023-05-09T02:04:27;16.00;99.90
1686;DHT22;840;47.980;7.830;2023-05-09T02:06:56;16.00;99.90
1686;DHT22;840;47.980;7.830;2023-05-09T02:09:24;15.90;99.90
1686;DHT22;840;47.980;7.830;2023-05-09T02:11:51;15.90;99.90
1686;DHT22;840;47.980;7.830;2023-05-09T02:14:19;15.90;99.90
1686;DHT22;840;47.980;7.830;2023-05-09T02:16:47;15.80;99.90
1686;DHT22;840;47.980;7.830;2023-05-09T02:19:15;15.80;99.90
1686;DHT22;840;47.980;7.830;2023-05-09T02:21:42;15.80;99.90
1686;DHT22;840;47.980;7.830;2023-05-09T02:24:09;15.80;99.90
1686;DHT22;840;47.980;7.830;2023-05-09T02:26:37;15.80;99.90
1686;DHT22;840;47.980;7.830;2023-05-09T02:29:06;15.70;99.90
1686;DHT22;840;47.980;7.830;2023-05-09T02:31:34;15.70;99.90
1686;DHT22;840;47.980;7.830;2023-05-09T02:34:03;15.70;99.90
1686;DHT22;840;47.980;7.830;2023-05-09T02:36:31;15.70;99.90
1686;DHT22;840;47.980;7.830;2023-05-09T02:38:58;15.60;99.90
1686;DHT22;840;47.980;7.830;2023-05-09T02:41:25;15.60;99.90
1686;DHT22;840;47.980;7.830;2023-05-09T02:43:53;15.60;99.90
1686;DHT22;840;47.980;7.830;2023-05-09T02:46:20;15.60;99.90
1686;DHT22;840;47.980;7.830;2023-05-09T02:48:47;15.60;99.90
1686;DHT22;840;47.980;7.830;2023-05-09T02:51:16;15.60;99.90
1686;DHT22;840;47.980;7.830;2023-05-09T02:53:43;15.60;99.90
1686;DHT22;840;47.980;7.830;2023-05-09T02:56:09;15.50;99.90
1686;DHT22;840;47.980;7.830;2023-05-09T02:58:36;15.50;99.90
1686;DHT22;840;47.980;7.830;2023-05-09T03:01:03;15.50;99.90
1686;DHT22;840;47.980;7.830;2023-05-09T03:03:31;15.50;99.90
1686;DHT22;840;47.980;7.830;2023-05-09T03:05:58;15.50;99.90
1686;DHT22;840;47.980;7.830;2023-05-09T03:08:27;15.50;99.90
1686;DHT22;840;47.980;7.830;2023-05-09T03:10:53;15.50;99.90
1686;DHT22;840;47.980;7.830;2023-05-09T03:13:20;15.50;99.90
1686;DHT22;840;47.980;7.830;2023-05-09T03:15:47;15.40;99.90
1686;DHT22;840;47.980;7.830;2023-05-09T03:18:13;15.40;99.90
1686;DHT22;840;47.980;7.830;2023-05-09T03:20:40;15.40;99.90
1686;DHT22;840;47.980;7.830;2023-05-09T03:23:07;15.40;99.90
1686;DHT22;840;47.980;7.830;2023-05-09T03:25:35;15.30;99.90
1686;DHT22;840;47.980;7.830;2023-05-09T03:28:03;15.30;99.90
1686;DHT22;840;47.980;7.830;2023-05-09T03:30:30;15.30;99.90
1686;DHT22;840;47.980;7.830;2023-05-09T03:32:56;15.30;99.90
1686;DHT22;840;47.980;7.830;2023-05-09T03:35:23;15.30;99.90
1686;DHT22;840;47.980;7.830;2023-05-09T03:37:50;15.30;99.90
1686;DHT22;840;47.980;7.830;2023-05-09T03:40:16;15.20;99.90
1686;DHT22;840;47.980;7.830;2023-05-09T03:42:45;15.20;99.90
1686;DHT22;840;47.980;7.830;2023-05-09T03:45:12;15.30;99.90
1686;DHT22;840;47.980;7.830;2023-05-09T03:47:44;15.30;99.90
1686;DHT22;840;47.980;7.830;2023-05-09T03:50:11;15.30;99.90
1686;DHT22;840;47.980;7.830;2023-05-09T03:52:38;15.20;99.90
1686;DHT22;840;47.980;7.830;2023-05-09T03:55:05;15.20;99.90
1686;DHT22;840;47.980;7.830;2023-05-09T03:57:33;15.20;99.90
1686;DHT22;840;47.980;7.830;2023-05-09T04:00:02;15.30;99.90
1686;DHT22;840;47.980;7.830;2023-05-09T04:02:31;15.30;99.90
1686;DHT22;840;47.980;7.830;2023-05-09T04:04:59;15.30;99.90
1686;DHT22;840;47.980;7.830;2023-05-09T04:07:26;15.20;99.90
1686;DHT22;840;47.980;7.830;2023-05-09T04:09:54;15.30;99.90
1686;DHT22;840;47.980;7.830;2023-05-09T04:12:20;15.30;99.90
1686;DHT22;840;47.980;7.830;2023-05-09T04:14:47;15.30;99.90
1686;DHT22;840;47.980;7.830;2023-05-09T04:17:15;15.30;99.90
1686;DHT22;840;47.980;7.830;2023-05-09T04:19:42;15.30;99.90
1686;DHT22;840;47.980;7.830;2023-05-09T04:22:09;15.40;99.90
1686;DHT22;840;47.980;7.830;2023-05-09T04:24:36;15.40;99.90
1686;DHT22;840;47.980;7.830;2023-05-09T04:27:03;15.50;99.90
1686;DHT22;840;47.980;7.830;2023-05-09T04:29:30;15.50;99.90
1686;DHT22;840;47.980;7.830;2023-05-09T04:31:58;15.50;99.90
1686;DHT22;840;47.980;7.830;2023-05-09T04:34:26;15.50;99.90
1686;DHT22;840;47.980;7.830;2023-05-09T04:36:54;15.50;99.90
1686;DHT22;840;47.980;7.830;2023-05-09T04:39:21;15.60;99.90
1686;DHT22;840;47.980;7.830;2023-05-09T04:41:49;15.60;99.90
1686;DHT22;840;47.980;7.830;2023-05-09T04:44:17;15.60;99.90
1686;DHT22;840;47.980;7.830;2023-05-09T04:46:43;15.60;99.90
1686;DHT22;840;47.980;7.830;2023-05-09T04:49:10;15.70;99.90
1686;DHT22;840;47.980;7.830;2023-05-09T04:51:41;15.70;99.90
1686;DHT22;840;47.980;7.830;2023-05-09T04:54:08;15.70;99.90
1686;DHT22;840;47.980;7.830;2023-05-09T04:56:34;15.70;99.90
1686;DHT22;840;47.980;7.830;2023-05-09T04:59:01;15.70;99.90
1686;DHT22;840;47.980;7.830;2023-05-09T05:01:28;15.80;99.90
1686;DHT22;840;47.980;7.830;2023-05-09T05:03:55;15.80;99.90
1686;DHT22;840;47.980;7.830;2023-05-09T05:06:22;15.80;99.90
1686;DHT22;840;47.980;7.830;2023-05-09T05:08:50;15.90;99.90
1686;DHT22;840;47.980;7.830;2023-05-09T05:11:16;15.90;99.90
1686;DHT22;840;47.980;7.830;2023-05-09T05:13:43;15.90;99.90
1686;DHT22;840;47.980;7.830;2023-05-09T05:16:10;16.00;99.90
1686;DHT22;840;47.980;7.830;2023-05-09T05:18:37;16.00;99.90
1686;DHT22;840;47.980;7.830;2023-05-09T05:21:04;16.10;99.90
1686;DHT22;840;47.980;7.830;2023-05-09T05:23:30;16.10;99.90
1686;DHT22;840;47.980;7.830;2023-05-09T05:25:58;16.10;99.90
1686;DHT22;840;47.980;7.830;2023-05-09T05:28:25;16.20;99.90
1686;DHT22;840;47.980;7.830;2023-05-09T05:30:52;16.20;99.90
1686;DHT22;840;47.980;7.830;2023-05-09T05:33:19;16.20;99.90
1686;DHT22;840;47.980;7.830;2023-05-09T05:35:46;16.30;99.90
1686;DHT22;840;47.980;7.830;2023-05-09T05:38:13;16.30;99.90
1686;DHT22;840;47.980;7.830;2023-05-09T05:40:39;16.40;99.90
1686;DHT22;840;47.980;7.830;2023-05-09T05:43:08;16.40;99.90
1686;DHT22;840;47.980;7.830;2023-05-09T05:45:34;16.50;99.90
1686;DHT22;840;47.980;7.830;2023-05-09T05:48:02;16.50;99.90
1686;DHT22;840;47.980;7.830;2023-05-09T05:50:29;16.60;99.90
1686;DHT22;840;47.980;7.830;2023-05-09T05:52:56;16.60;99.90
1686;DHT22;840;47.980;7.830;2023-05-09T05:55:22;16.70;99.90
1686;DHT22;840;47.980;7.830;2023-05-09T05:57:49;16.80;99.90
1686;DHT22;840;47.980;7.830;2023-05-09T06:00:17;16.90;99.90
1686;DHT22;840;47.980;7.830;2023-05-09T06:02:45;17.00;99.90
1686;DHT22;840;47.980;7.830;2023-05-09T06:05:12;17.00;99.90
1686;DHT22;840;47.980;7.830;2023-05-09T06:07:39;17.00;99.90
1686;DHT22;840;47.980;7.830;2023-05-09T06:10:08;17.10;99.90
1686;DHT22;840;47.980;7.830;2023-05-09T06:12:35;17.20;99.90
1686;DHT22;840;47.980;7.830;2023-05-09T06:15:02;17.20;99.90
1686;DHT22;840;47.980;7.830;2023-05-09T06:17:31;17.20;99.90
1686;DHT22;840;47.980;7.830;2023-05-09T06:19:58;17.30;99.90
1686;DHT22;840;47.980;7.830;2023-05-09T06:22:25;17.30;99.90
1686;DHT22;840;47.980;7.830;2023-05-09T06:24:52;17.40;99.90
1686;DHT22;840;47.980;7.830;2023-05-09T06:27:19;17.40;99.90
1686;DHT22;840;47.980;7.830;2023-05-09T06:29:46;17.50;99.90
1686;DHT22;840;47.980;7.830;2023-05-09T06:32:13;17.60;99.90
1686;DHT22;840;47.980;7.830;2023-05-09T06:34:41;17.70;99.90
1686;DHT22;840;47.980;7.830;2023-05-09T06:37:08;17.80;99.90
1686;DHT22;840;47.980;7.830;2023-05-09T06:39:35;17.80;99.90
1686;DHT22;840;47.980;7.830;2023-05-09T06:42:02;17.90;99.90
1686;DHT22;840;47.980;7.830;2023-05-09T06:44:28;18.00;99.90
1686;DHT22;840;47.980;7.830;2023-05-09T06:46:55;18.10;99.90
1686;DHT22;840;47.980;7.830;2023-05-09T06:49:22;18.20;99.90
1686;DHT22;840;47.980;7.830;2023-05-09T06:51:50;18.30;99.90
1686;DHT22;840;47.980;7.830;2023-05-09T06:54:17;18.40;99.90
1686;DHT22;840;47.980;7.830;2023-05-09T06:56:44;18.40;99.90
1686;DHT22;840;47.980;7.830;2023-05-09T06:59:11;18.50;99.90
1686;DHT22;840;47.980;7.830;2023-05-09T07:01:38;18.60;99.90
1686;DHT22;840;47.980;7.830;2023-05-09T07:04:05;18.70;99.90
1686;DHT22;840;47.980;7.830;2023-05-09T07:06:32;18.70;99.90
1686;DHT22;840;47.980;7.830;2023-05-09T07:09:00;18.70;99.90
1686;DHT22;840;47.980;7.830;2023-05-09T07:11:32;18.70;99.90
1686;DHT22;840;47.980;7.830;2023-05-09T07:13:59;18.80;99.90
1686;DHT22;840;47.980;7.830;2023-05-09T07:16:25;18.80;99.90
1686;DHT22;840;47.980;7.830;2023-05-09T07:18:53;18.90;99.90
1686;DHT22;840;47.980;7.830;2023-05-09T07:21:20;18.80;99.90
1686;DHT22;840;47.980;7.830;2023-05-09T07:23:47;18.80;99.90
1686;DHT22;840;47.980;7.830;2023-05-09T07:26:15;18.90;99.90
1686;DHT22;840;47.980;7.830;2023-05-09T07:28:41;18.90;99.90
1686;DHT22;840;47.980;7.830;2023-05-09T07:31:10;19.00;99.90
1686;DHT22;840;47.980;7.830;2023-05-09T07:33:37;19.00;99.90
1686;DHT22;840;47.980;7.830;2023-05-09T07:36:04;19.20;99.90
1686;DHT22;840;47.980;7.830;2023-05-09T07:38:31;19.20;99.90
1686;DHT22;840;47.980;7.830;2023-05-09T07:40:58;19.30;99.90
1686;DHT22;840;47.980;7.830;2023-05-09T07:43:26;19.30;99.90
1686;DHT22;840;47.980;7.830;2023-05-09T07:45:54;19.30;99.90
1686;DHT22;840;47.980;7.830;2023-05-09T07:48:21;19.40;99.90
1686;DHT22;840;47.980;7.830;2023-05-09T07:50:47;19.50;99.90
1686;DHT22;840;47.980;7.830;2023-05-09T07:53:14;19.70;99.90
1686;DHT22;840;47.980;7.830;2023-05-09T07:55:41;19.90;99.90
1686;DHT22;840;47.980;7.830;2023-05-09T07:58:09;20.00;99.90
1686;DHT22;840;47.980;7.830;2023-05-09T08:00:37;20.10;99.90
1686;DHT22;840;47.980;7.830;2023-05-09T08:03:04;20.10;99.90
1686;DHT22;840;47.980;7.830;2023-05-09T08:05:31;20.20;99.90
1686;DHT22;840;47.980;7.830;2023-05-09T08:07:58;20.20;99.90
1686;DHT22;840;47.980;7.830;2023-05-09T08:10:25;20.30;99.90
1686;DHT22;840;47.980;7.830;2023-05-09T08:12:55;20.40;99.90
1686;DHT22;840;47.980;7.830;2023-05-09T08:15:21;20.50;99.90
1686;DHT22;840;47.980;7.830;2023-05-09T08:17:50;20.40;99.90
1686;DHT22;840;47.980;7.830;2023-05-09T08:20:16;20.50;99.90
1686;DHT22;840;47.980;7.830;2023-05-09T08:22:44;20.50;99.90
1686;DHT22;840;47.980;7.830;2023-05-09T08:25:11;20.20;99.90
1686;DHT22;840;47.980;7.830;2023-05-09T08:27:39;20.20;99.90
1686;DHT22;840;47.980;7.830;2023-05-09T08:30:07;20.20;99.90
1686;DHT22;840;47.980;7.830;2023-05-09T08:32:35;20.10;99.90
1686;DHT22;840;47.980;7.830;2023-05-09T08:35:05;20.10;99.90
1686;DHT22;840;47.980;7.830;2023-05-09T08:37:33;20.20;99.90
1686;DHT22;840;47.980;7.830;2023-05-09T08:40:00;20.30;99.90
1686;DHT22;840;47.980;7.830;2023-05-09T08:42:28;20.30;99.90
1686;DHT22;840;47.980;7.830;2023-05-09T08:44:56;20.50;99.90
1686;DHT22;840;47.980;7.830;2023-05-09T08:47:23;20.50;99.90
1686;DHT22;840;47.980;7.830;2023-05-09T08:49:50;20.40;99.90
1686;DHT22;840;47.980;7.830;2023-05-09T08:52:19;20.30;99.90
1686;DHT22;840;47.980;7.830;2023-05-09T08:54:47;20.10;99.90
1686;DHT22;840;47.980;7.830;2023-05-09T08:57:13;20.00;99.90
1686;DHT22;840;47.980;7.830;2023-05-09T08:59:41;20.00;99.90
1686;DHT22;840;47.980;7.830;2023-05-09T09:02:11;20.00;99.90
1686;DHT22;840;47.980;7.830;2023-05-09T09:04:39;19.80;99.90
1686;DHT22;840;47.980;7.830;2023-05-09T09:07:06;19.80;99.90
1686;DHT22;840;47.980;7.830;2023-05-09T09:09:35;19.80;99.90
1686;DHT22;840;47.980;7.830;2023-05-09T09:12:05;20.00;99.90
1686;DHT22;840;47.980;7.830;2023-05-09T09:14:48;20.00;99.90
1686;DHT22;840;47.980;7.830;2023-05-09T09:17:19;20.10;99.90
1686;DHT22;840;47.980;7.830;2023-05-09T09:19:48;20.10;99.90
1686;DHT22;840;47.980;7.830;2023-05-09T09:22:18;20.20;99.90
1686;DHT22;840;47.980;7.830;2023-05-09T09:24:46;20.20;99.90
1686;DHT22;840;47.980;7.830;2023-05-09T09:27:13;20.40;99.90
1686;DHT22;840;47.980;7.830;2023-05-09T09:29:39;20.50;99.90
1686;DHT22;840;47.980;7.830;2023-05-09T09:32:06;20.70;99.90
1686;DHT22;840;47.980;7.830;2023-05-09T09:34:33;20.90;99.90
1686;DHT22;840;47.980;7.830;2023-05-09T09:37:00;21.00;99.90
1686;DHT22;840;47.980;7.830;2023-05-09T09:39:27;21.10;99.90
1686;DHT22;840;47.980;7.830;2023-05-09T09:41:55;21.10;99.90
1686;DHT22;840;47.980;7.830;2023-05-09T09:44:22;21.20;99.90
1686;DHT22;840;47.980;7.830;2023-05-09T09:46:50;21.20;99.90
1686;DHT22;840;47.980;7.830;2023-05-09T09:49:19;21.20;99.90
1686;DHT22;840;47.980;7.830;2023-05-09T09:51:49;21.30;99.90
1686;DHT22;840;47.980;7.830;2023-05-09T09:54:16;21.50;99.90
1686;DHT22;840;47.980;7.830;2023-05-09T09:56:44;21.70;99.90
1686;DHT22;840;47.980;7.830;2023-05-09T09:59:13;21.80;99.90
1686;DHT22;840;47.980;7.830;2023-05-09T10:01:54;21.80;99.90
1686;DHT22;840;47.980;7.830;2023-05-09T10:04:22;21.70;99.90
1686;DHT22;840;47.980;7.830;2023-05-09T10:06:53;21.80;99.90
1686;DHT22;840;47.980;7.830;2023-05-09T10:09:21;21.80;99.90
1686;DHT22;840;47.980;7.830;2023-05-09T10:11:49;21.70;99.90
1686;DHT22;840;47.980;7.830;2023-05-09T10:14:22;21.40;99.90
1686;DHT22;840;47.980;7.830;2023-05-09T10:16:51;21.50;99.90
1686;DHT22;840;47.980;7.830;2023-05-09T10:19:20;21.60;99.90
1686;DHT22;840;47.980;7.830;2023-05-09T10:21:51;21.50;99.90
1686;DHT22;840;47.980;7.830;2023-05-09T10:24:26;21.40;99.90
1686;DHT22;840;47.980;7.830;2023-05-09T10:27:01;21.50;99.90
1686;DHT22;840;47.980;7.830;2023-05-09T10:29:34;21.60;99.90
1686;DHT22;840;47.980;7.830;2023-05-09T10:32:06;21.60;99.90
1686;DHT22;840;47.980;7.830;2023-05-09T10:34:42;21.70;99.90
1686;DHT22;840;47.980;7.830;2023-05-09T10:37:09;21.70;99.90
1686;DHT22;840;47.980;7.830;2023-05-09T10:39:37;21.60;99.90
1686;DHT22;840;47.980;7.830;2023-05-09T10:42:04;21.70;99.90
1686;DHT22;840;47.980;7.830;2023-05-09T10:44:32;21.80;99.90
1686;DHT22;840;47.980;7.830;2023-05-09T10:47:00;21.90;99.90
1686;DHT22;840;47.980;7.830;2023-05-09T10:49:27;22.00;99.90
1686;DHT22;840;47.980;7.830;2023-05-09T10:51:54;21.90;99.90
1686;DHT22;840;47.980;7.830;2023-05-09T10:54:25;21.90;99.90
1686;DHT22;840;47.980;7.830;2023-05-09T10:56:53;21.90;99.90
1686;DHT22;840;47.980;7.830;2023-05-09T10:59:35;22.10;99.90
1686;DHT22;840;47.980;7.830;2023-05-09T11:02:02;22.40;99.90
1686;DHT22;840;47.980;7.830;2023-05-09T11:04:30;22.50;99.90
1686;DHT22;840;47.980;7.830;2023-05-09T11:06:58;22.60;99.90
1686;DHT22;840;47.980;7.830;2023-05-09T11:09:30;22.70;99.90
1686;DHT22;840;47.980;7.830;2023-05-09T11:12:00;22.70;99.90
1686;DHT22;840;47.980;7.830;2023-05-09T11:14:40;22.70;99.90
1686;DHT22;840;47.980;7.830;2023-05-09T11:17:09;22.70;99.90
1686;DHT22;840;47.980;7.830;2023-05-09T11:22:20;22.50;99.90
1686;DHT22;840;47.980;7.830;2023-05-09T11:24:49;22.20;99.90
1686;DHT22;840;47.980;7.830;2023-05-09T11:27:18;22.10;99.90
1686;DHT22;840;47.980;7.830;2023-05-09T11:29:49;22.20;99.90
1686;DHT22;840;47.980;7.830;2023-05-09T11:32:17;22.30;99.90
1686;DHT22;840;47.980;7.830;2023-05-09T11:34:44;22.50;99.90
1686;DHT22;840;47.980;7.830;2023-05-09T11:37:12;22.70;99.90
1686;DHT22;840;47.980;7.830;2023-05-09T11:39:55;22.90;99.90
1686;DHT22;840;47.980;7.830;2023-05-09T11:42:22;22.80;99.90
1686;DHT22;840;47.980;7.830;2023-05-09T11:44:52;22.80;99.90
1686;DHT22;840;47.980;7.830;2023-05-09T11:47:19;22.90;99.90
1686;DHT22;840;47.980;7.830;2023-05-09T11:49:47;23.00;99.90
1686;DHT22;840;47.980;7.830;2023-05-09T11:52:17;23.10;99.90
1686;DHT22;840;47.980;7.830;2023-05-09T11:54:45;23.20;99.90
1686;DHT22;840;47.980;7.830;2023-05-09T11:57:12;23.30;99.90
1686;DHT22;840;47.980;7.830;2023-05-09T11:59:42;22.90;99.90
1686;DHT22;840;47.980;7.830;2023-05-09T12:02:10;23.00;99.90
1686;DHT22;840;47.980;7.830;2023-05-09T12:04:37;23.10;99.90
1686;DHT22;840;47.980;7.830;2023-05-09T12:07:04;23.10;99.90
1686;DHT22;840;47.980;7.830;2023-05-09T12:09:33;23.20;99.90
1686;DHT22;840;47.980;7.830;2023-05-09T12:12:07;23.30;99.90
1686;DHT22;840;47.980;7.830;2023-05-09T12:14:35;23.40;99.90
1686;DHT22;840;47.980;7.830;2023-05-09T12:17:02;23.60;99.90
1686;DHT22;840;47.980;7.830;2023-05-09T12:19:30;23.80;99.90
1686;DHT22;840;47.980;7.830;2023-05-09T12:21:58;23.90;99.90
1686;DHT22;840;47.980;7.830;2023-05-09T12:24:26;23.90;99.90
1686;DHT22;840;47.980;7.830;2023-05-09T12:26:55;24.00;99.90
1686;DHT22;840;47.980;7.830;2023-05-09T12:29:23;24.20;99.90
1686;DHT22;840;47.980;7.830;2023-05-09T12:31:51;24.40;99.90
1686;DHT22;840;47.980;7.830;2023-05-09T12:34:18;24.60;99.90
1686;DHT22;840;47.980;7.830;2023-05-09T12:36:46;24.80;99.90
1686;DHT22;840;47.980;7.830;2023-05-09T12:39:15;24.80;99.90
1686;DHT22;840;47.980;7.830;2023-05-09T12:41:46;24.90;99.90
1686;DHT22;840;47.980;7.830;2023-05-09T12:44:18;24.80;99.90
1686;DHT22;840;47.980;7.830;2023-05-09T12:46:54;24.80;99.90
1686;DHT22;840;47.980;7.830;2023-05-09T12:49:21;24.80;99.90
1686;DHT22;840;47.980;7.830;2023-05-09T12:51:51;24.90;99.90
1686;DHT22;840;47.980;7.830;2023-05-09T12:54:22;25.10;99.90
1686;DHT22;840;47.980;7.830;2023-05-09T12:56:49;25.10;99.90
1686;DHT22;840;47.980;7.830;2023-05-09T12:59:21;25.20;99.90
1686;DHT22;840;47.980;7.830;2023-05-09T13:01:52;25.20;99.90
1686;DHT22;840;47.980;7.830;2023-05-09T13:04:20;25.00;99.90
1686;DHT22;840;47.980;7.830;2023-05-09T13:06:53;25.00;99.90
1686;DHT22;840;47.980;7.830;2023-05-09T13:09:22;24.90;99.90
1686;DHT22;840;47.980;7.830;2023-05-09T13:11:50;24.70;99.90
1686;DHT22;840;47.980;7.830;2023-05-09T13:14:18;24.70;99.90
1686;DHT22;840;47.980;7.830;2023-05-09T13:16:46;24.70;99.90
1686;DHT22;840;47.980;7.830;2023-05-09T13:19:13;24.80;99.90
1686;DHT22;840;47.980;7.830;2023-05-09T13:21:39;24.80;99.90
1686;DHT22;840;47.980;7.830;2023-05-09T13:24:08;24.80;99.90
1686;DHT22;840;47.980;7.830;2023-05-09T13:26:35;24.60;99.90
1686;DHT22;840;47.980;7.830;2023-05-09T13:29:01;24.60;99.90
1686;DHT22;840;47.980;7.830;2023-05-09T13:31:29;24.50;99.90
1686;DHT22;840;47.980;7.830;2023-05-09T13:33:56;24.40;99.90
1686;DHT22;840;47.980;7.830;2023-05-09T13:36:23;24.30;99.90
1686;DHT22;840;47.980;7.830;2023-05-09T13:38:49;24.30;99.90
1686;DHT22;840;47.980;7.830;2023-05-09T13:41:17;24.20;99.90
1686;DHT22;840;47.980;7.830;2023-05-09T13:43:48;24.20;99.90
1686;DHT22;840;47.980;7.830;2023-05-09T13:46:15;24.10;99.90
1686;DHT22;840;47.980;7.830;2023-05-09T13:48:41;24.10;99.90
1686;DHT22;840;47.980;7.830;2023-05-09T13:51:12;24.00;99.90
1686;DHT22;840;47.980;7.830;2023-05-09T13:53:39;23.90;99.90
1686;DHT22;840;47.980;7.830;2023-05-09T13:56:06;23.90;99.90
1686;DHT22;840;47.980;7.830;2023-05-09T13:58:35;23.80;99.90
1686;DHT22;840;47.980;7.830;2023-05-09T14:01:02;23.80;99.90
1686;DHT22;840;47.980;7.830;2023-05-09T14:03:28;23.70;99.90
1686;DHT22;840;47.980;7.830;2023-05-09T14:05:56;23.70;99.90
1686;DHT22;840;47.980;7.830;2023-05-09T14:08:23;23.60;99.90
1686;DHT22;840;47.980;7.830;2023-05-09T14:10:49;23.50;99.90
1686;DHT22;840;47.980;7.830;2023-05-09T14:13:16;23.40;99.90
1686;DHT22;840;47.980;7.830;2023-05-09T14:15:45;23.30;99.90
1686;DHT22;840;47.980;7.830;2023-05-09T14:18:12;23.20;99.90
1686;DHT22;840;47.980;7.830;2023-05-09T14:20:38;23.20;99.90
1686;DHT22;840;47.980;7.830;2023-05-09T14:23:06;23.00;99.90
1686;DHT22;840;47.980;7.830;2023-05-09T14:25:33;23.00;99.90
1686;DHT22;840;47.980;7.830;2023-05-09T14:28:00;22.90;99.90
1686;DHT22;840;47.980;7.830;2023-05-09T14:30:26;22.80;99.90
1686;DHT22;840;47.980;7.830;2023-05-09T14:32:54;22.80;99.90
1686;DHT22;840;47.980;7.830;2023-05-09T14:35:21;22.70;99.90
1686;DHT22;840;47.980;7.830;2023-05-09T14:37:48;22.60;99.90
1686;DHT22;840;47.980;7.830;2023-05-09T14:40:15;22.50;99.90
1686;DHT22;840;47.980;7.830;2023-05-09T14:42:42;22.40;99.90
1686;DHT22;840;47.980;7.830;2023-05-09T14:45:09;22.20;99.90
1686;DHT22;840;47.980;7.830;2023-05-09T14:47:39;22.00;99.90
1686;DHT22;840;47.980;7.830;2023-05-09T14:50:08;21.90;99.90
1686;DHT22;840;47.980;7.830;2023-05-09T14:52:40;21.80;99.90
1686;DHT22;840;47.980;7.830;2023-05-09T14:55:07;21.70;99.90
1686;DHT22;840;47.980;7.830;2023-05-09T14:57:34;21.50;99.90
1686;DHT22;840;47.980;7.830;2023-05-09T15:00:01;21.40;99.90
1686;DHT22;840;47.980;7.830;2023-05-09T15:02:28;21.40;99.90
1686;DHT22;840;47.980;7.830;2023-05-09T15:04:55;21.30;99.90
1686;DHT22;840;47.980;7.830;2023-05-09T15:07:24;21.30;99.90
1686;DHT22;840;47.980;7.830;2023-05-09T15:09:51;21.30;99.90
1686;DHT22;840;47.980;7.830;2023-05-09T15:12:17;21.30;99.90
1686;DHT22;840;47.980;7.830;2023-05-09T15:14:44;21.30;99.90
1686;DHT22;840;47.980;7.830;2023-05-09T15:17:11;21.40;99.90
1686;DHT22;840;47.980;7.830;2023-05-09T15:19:38;21.40;99.90
1686;DHT22;840;47.980;7.830;2023-05-09T15:22:07;21.40;99.90
1686;DHT22;840;47.980;7.830;2023-05-09T15:24:35;21.40;99.90
1686;DHT22;840;47.980;7.830;2023-05-09T15:27:02;21.20;99.90
1686;DHT22;840;47.980;7.830;2023-05-09T15:29:29;21.10;99.90
1686;DHT22;840;47.980;7.830;2023-05-09T15:31:55;20.80;99.90
1686;DHT22;840;47.980;7.830;2023-05-09T15:34:22;20.60;99.90
1686;DHT22;840;47.980;7.830;2023-05-09T15:36:49;20.50;99.90
1686;DHT22;840;47.980;7.830;2023-05-09T15:39:16;20.30;99.90
1686;DHT22;840;47.980;7.830;2023-05-09T15:41:45;20.20;99.90
1686;DHT22;840;47.980;7.830;2023-05-09T15:44:11;20.00;99.90
1686;DHT22;840;47.980;7.830;2023-05-09T15:46:38;19.80;99.90
1686;DHT22;840;47.980;7.830;2023-05-09T15:49:05;19.30;99.90
1686;DHT22;840;47.980;7.830;2023-05-09T15:51:32;18.70;99.90
1686;DHT22;840;47.980;7.830;2023-05-09T15:53:59;18.20;99.90
1686;DHT22;840;47.980;7.830;2023-05-09T15:56:26;17.80;99.90
1686;DHT22;840;47.980;7.830;2023-05-09T15:58:55;17.50;99.90
1686;DHT22;840;47.980;7.830;2023-05-09T16:01:23;17.20;99.90
1686;DHT22;840;47.980;7.830;2023-05-09T16:03:50;17.10;99.90
1686;DHT22;840;47.980;7.830;2023-05-09T16:06:17;17.00;99.90
1686;DHT22;840;47.980;7.830;2023-05-09T16:08:44;17.00;99.90
1686;DHT22;840;47.980;7.830;2023-05-09T16:11:12;17.00;99.90
1686;DHT22;840;47.980;7.830;2023-05-09T16:13:38;16.90;99.90
1686;DHT22;840;47.980;7.830;2023-05-09T16:16:06;17.00;99.90
1686;DHT22;840;47.980;7.830;2023-05-09T16:18:33;17.10;99.90
1686;DHT22;840;47.980;7.830;2023-05-09T16:21:00;17.10;99.90
1686;DHT22;840;47.980;7.830;2023-05-09T16:23:27;17.20;99.90
1686;DHT22;840;47.980;7.830;2023-05-09T16:25:54;17.20;99.90